Leaf River, Illinois
Current Conditions -  °F | °C
As of 4:55 PM on Wednesday 22 Oct 2014 (Local Time) from KFEP Reporting Station
Clear Clear  
Wind Chill: 57°   Ceiling: Unl
Heat Index: 57°   Visibility: 10mi
Dew Point: 35°   Wind: 9mph
Humidity: 43%   Direction: 140°SE
Pressure: 30.25"   Gusts: NA
Location:  42.13°N, 89.4°W
Report Text: KFEP 222155Z AUTO 14008KT 10SM CLR 14/02 A3025 RMK AO2 T01390015
Loading
Personal Weather Stations






























Interactive Weather Map
Tropical Storm Tracking
New forecast layout! Learn more

10-Day Weather Forecast

Advertisements
Track Severe Weather on mobile